JZA438 CYCD-PAKT
Flight info
| Callsign | JZA438 |
|---|---|
| Flight time | 1h 25m |
| Altitude | 32000 |
| Route | LADY2 KATUB T719 YZT DCT CYPR DCT ANN |
| Aircraft | CRJ9/M-SDFGIRWY/S |
Departure
| Time | 2026-04-18 11:25 |
|---|---|
| Airport | Nanaimo Airport (CYCD) |
Arrival
| Time | 2026-04-18 12:51 |
|---|---|
| Airport | Ketchikan International Airport (PAKT) |
| Time | Latitude | Longitude | Altitude | Speed | Heading |
|---|---|---|---|---|---|
| 2026-04-18 10:56 | 49.05245 | -123.87331 | 99 ft | 0 kts | 308° |
| 2026-04-18 11:13 | 49.05243 | -123.87327 | 99 ft | 3 kts | 294° |
| 2026-04-18 11:13 | 49.05234 | -123.87301 | 99 ft | 3 kts | 303° |
| 2026-04-18 11:14 | 49.05221 | -123.87279 | 99 ft | 3 kts | 323° |
| 2026-04-18 11:14 | 49.05204 | -123.87267 | 99 ft | 3 kts | 351° |
| 2026-04-18 11:14 | 49.05194 | -123.87267 | 99 ft | 0 kts | 1° |
| 2026-04-18 11:17 | 49.05195 | -123.87267 | 99 ft | 1 kts | 1° |
| 2026-04-18 11:17 | 49.05204 | -123.87266 | 99 ft | 2 kts | 1° |
| 2026-04-18 11:17 | 49.05222 | -123.87266 | 99 ft | 3 kts | 1° |
| 2026-04-18 11:18 | 49.05247 | -123.87266 | 99 ft | 4 kts | 0° |
| 2026-04-18 11:18 | 49.05280 | -123.87265 | 99 ft | 5 kts | 0° |
| 2026-04-18 11:18 | 49.05319 | -123.87265 | 99 ft | 6 kts | 1° |
| 2026-04-18 11:18 | 49.05364 | -123.87263 | 99 ft | 7 kts | 1° |
| 2026-04-18 11:19 | 49.05416 | -123.87262 | 99 ft | 8 kts | 1° |
| 2026-04-18 11:19 | 49.05473 | -123.87261 | 99 ft | 9 kts | 0° |
| 2026-04-18 11:19 | 49.05535 | -123.87260 | 99 ft | 9 kts | 1° |
| 2026-04-18 11:19 | 49.05602 | -123.87258 | 99 ft | 10 kts | 1° |
| 2026-04-18 11:20 | 49.05675 | -123.87257 | 99 ft | 11 kts | 1° |
| 2026-04-18 11:20 | 49.05752 | -123.87254 | 99 ft | 11 kts | 1° |
| 2026-04-18 11:20 | 49.05833 | -123.87253 | 99 ft | 12 kts | 0° |
| 2026-04-18 11:20 | 49.05918 | -123.87251 | 99 ft | 12 kts | 1° |
| 2026-04-18 11:21 | 49.06007 | -123.87250 | 99 ft | 13 kts | 1° |
| 2026-04-18 11:21 | 49.06099 | -123.87247 | 99 ft | 13 kts | 1° |
| 2026-04-18 11:21 | 49.06195 | -123.87244 | 99 ft | 14 kts | 1° |
| 2026-04-18 11:21 | 49.06291 | -123.87231 | 99 ft | 13 kts | 26° |
| 2026-04-18 11:22 | 49.06349 | -123.87129 | 100 ft | 10 kts | 77° |
| 2026-04-18 11:22 | 49.06350 | -123.87110 | 100 ft | 0 kts | 86° |
| 2026-04-18 11:23 | 49.06350 | -123.87102 | 100 ft | 3 kts | 89° |
| 2026-04-18 11:23 | 49.06339 | -123.87035 | 101 ft | 8 kts | 119° |
| 2026-04-18 11:23 | 49.06295 | -123.87000 | 101 ft | 5 kts | 176° |
| 2026-04-18 11:23 | 49.06293 | -123.87000 | 101 ft | 0 kts | 176° |
| 2026-04-18 11:24 | 49.06286 | -123.86999 | 101 ft | 11 kts | 178° |
| 2026-04-18 11:24 | 49.05938 | -123.87005 | 101 ft | 89 kts | 181° |
| 2026-04-18 11:25 | 49.05089 | -123.87017 | 102 ft | 152 kts | 181° |
| 2026-04-18 11:25 | 49.03974 | -123.87046 | 660 ft | 160 kts | 182° |
| 2026-04-18 11:25 | 49.02919 | -123.87103 | 1573 ft | 151 kts | 183° |
| 2026-04-18 11:25 | 49.01869 | -123.86757 | 2110 ft | 165 kts | 138° |
| 2026-04-18 11:26 | 49.01305 | -123.85301 | 2857 ft | 160 kts | 113° |
| 2026-04-18 11:26 | 49.00755 | -123.83741 | 3412 ft | 176 kts | 122° |
| 2026-04-18 11:26 | 49.00010 | -123.82168 | 4062 ft | 185 kts | 129° |
| 2026-04-18 11:26 | 48.99171 | -123.80671 | 4915 ft | 187 kts | 131° |
| 2026-04-18 11:27 | 48.98297 | -123.79192 | 5738 ft | 188 kts | 132° |
| 2026-04-18 11:27 | 48.97455 | -123.77596 | 6404 ft | 204 kts | 115° |
| 2026-04-18 11:27 | 48.97294 | -123.75362 | 6909 ft | 227 kts | 83° |
| 2026-04-18 11:27 | 48.97604 | -123.72912 | 7526 ft | 245 kts | 75° |
| 2026-04-18 11:28 | 48.98513 | -123.70656 | 8146 ft | 263 kts | 39° |
| 2026-04-18 11:28 | 49.00209 | -123.69519 | 8853 ft | 275 kts | 11° |
| 2026-04-18 11:28 | 49.02135 | -123.69249 | 9706 ft | 281 kts | 356° |
| 2026-04-18 11:28 | 49.04083 | -123.69634 | 10560 ft | 285 kts | 347° |
| 2026-04-18 11:29 | 49.05919 | -123.70752 | 11381 ft | 286 kts | 325° |
| 2026-04-18 11:29 | 49.07545 | -123.72466 | 12211 ft | 289 kts | 320° |
| 2026-04-18 11:29 | 49.09155 | -123.74320 | 13021 ft | 291 kts | 319° |
| 2026-04-18 11:29 | 49.10788 | -123.76193 | 13804 ft | 295 kts | 320° |
| 2026-04-18 11:30 | 49.12457 | -123.78031 | 14583 ft | 297 kts | 321° |
| 2026-04-18 11:30 | 49.14136 | -123.79905 | 15297 ft | 300 kts | 320° |
| 2026-04-18 11:30 | 49.15816 | -123.81820 | 15994 ft | 303 kts | 319° |
| 2026-04-18 11:30 | 49.17488 | -123.83796 | 16659 ft | 304 kts | 317° |
| 2026-04-18 11:31 | 49.19146 | -123.85827 | 17335 ft | 308 kts | 317° |
| 2026-04-18 11:31 | 49.20817 | -123.87882 | 17909 ft | 309 kts | 316° |
| 2026-04-18 11:31 | 49.22467 | -123.90003 | 18491 ft | 311 kts | 316° |
| 2026-04-18 11:31 | 49.24117 | -123.92177 | 19054 ft | 313 kts | 316° |
| 2026-04-18 11:32 | 49.25778 | -123.94359 | 19600 ft | 316 kts | 316° |
| 2026-04-18 11:32 | 49.27463 | -123.96534 | 20146 ft | 318 kts | 317° |
| 2026-04-18 11:32 | 49.29173 | -123.98714 | 20657 ft | 321 kts | 317° |
| 2026-04-18 11:32 | 49.30887 | -124.00921 | 21146 ft | 324 kts | 317° |
| 2026-04-18 11:33 | 49.32653 | -124.03064 | 21670 ft | 326 kts | 321° |
| 2026-04-18 11:33 | 49.34547 | -124.05011 | 22135 ft | 329 kts | 324° |
| 2026-04-18 11:33 | 49.36490 | -124.06862 | 22594 ft | 332 kts | 325° |
| 2026-04-18 11:33 | 49.38461 | -124.08726 | 23040 ft | 334 kts | 325° |
| 2026-04-18 11:34 | 49.40411 | -124.10596 | 23467 ft | 336 kts | 324° |
| 2026-04-18 11:34 | 49.42380 | -124.12552 | 23883 ft | 338 kts | 324° |
| 2026-04-18 11:34 | 49.44353 | -124.14539 | 24300 ft | 340 kts | 323° |
| 2026-04-18 11:34 | 49.46333 | -124.16549 | 24699 ft | 342 kts | 322° |
| 2026-04-18 11:35 | 49.48024 | -124.19066 | 25011 ft | 339 kts | 303° |
| 2026-04-18 11:35 | 49.49237 | -124.22178 | 25370 ft | 340 kts | 295° |
| 2026-04-18 11:35 | 49.50268 | -124.25453 | 25736 ft | 341 kts | 292° |
| 2026-04-18 11:35 | 49.51250 | -124.28755 | 26067 ft | 344 kts | 292° |
| 2026-04-18 11:36 | 49.52276 | -124.32122 | 26409 ft | 345 kts | 294° |
| 2026-04-18 11:36 | 49.53361 | -124.35434 | 26734 ft | 348 kts | 295° |
| 2026-04-18 11:36 | 49.54487 | -124.38739 | 27031 ft | 349 kts | 296° |
| 2026-04-18 11:36 | 49.55612 | -124.42071 | 27311 ft | 351 kts | 295° |
| 2026-04-18 11:37 | 49.56724 | -124.45422 | 27572 ft | 352 kts | 295° |
| 2026-04-18 11:37 | 49.57840 | -124.48790 | 27806 ft | 354 kts | 295° |
| 2026-04-18 11:37 | 49.58956 | -124.52167 | 28034 ft | 355 kts | 295° |
| 2026-04-18 11:37 | 49.60080 | -124.55572 | 28236 ft | 356 kts | 295° |
| 2026-04-18 11:38 | 49.61202 | -124.58975 | 28404 ft | 357 kts | 295° |
| 2026-04-18 11:38 | 49.62329 | -124.62392 | 28600 ft | 358 kts | 295° |
| 2026-04-18 11:38 | 49.63456 | -124.65816 | 28764 ft | 358 kts | 295° |
| 2026-04-18 11:38 | 49.64583 | -124.69250 | 28915 ft | 359 kts | 295° |
| 2026-04-18 11:39 | 49.65713 | -124.72689 | 29099 ft | 359 kts | 295° |
| 2026-04-18 11:39 | 49.66828 | -124.76092 | 29257 ft | 360 kts | 295° |
| 2026-04-18 11:39 | 49.67958 | -124.79548 | 29414 ft | 361 kts | 295° |
| 2026-04-18 11:39 | 49.69090 | -124.83015 | 29567 ft | 362 kts | 295° |
| 2026-04-18 11:40 | 49.70222 | -124.86486 | 29712 ft | 363 kts | 295° |
| 2026-04-18 11:40 | 49.71391 | -124.89946 | 29854 ft | 364 kts | 298° |
| 2026-04-18 11:40 | 49.72687 | -124.93307 | 29996 ft | 365 kts | 301° |
| 2026-04-18 11:40 | 49.74081 | -124.96596 | 30131 ft | 366 kts | 302° |
| 2026-04-18 11:41 | 49.75493 | -124.99872 | 30305 ft | 366 kts | 302° |
| 2026-04-18 11:41 | 49.76897 | -125.03153 | 30459 ft | 366 kts | 301° |
| 2026-04-18 11:41 | 49.78274 | -125.06472 | 30615 ft | 366 kts | 301° |
| 2026-04-18 11:41 | 49.79637 | -125.09801 | 30742 ft | 366 kts | 300° |
| 2026-04-18 11:42 | 49.80997 | -125.13136 | 30887 ft | 366 kts | 301° |
| 2026-04-18 11:42 | 49.82357 | -125.16467 | 31021 ft | 366 kts | 300° |
| 2026-04-18 11:42 | 49.83721 | -125.19806 | 31163 ft | 366 kts | 300° |
| 2026-04-18 11:42 | 49.85069 | -125.23107 | 31262 ft | 367 kts | 300° |
| 2026-04-18 11:43 | 49.86430 | -125.26450 | 31384 ft | 367 kts | 300° |
| 2026-04-18 11:43 | 49.87791 | -125.29796 | 31517 ft | 367 kts | 300° |
| 2026-04-18 11:43 | 49.89149 | -125.33144 | 31642 ft | 367 kts | 300° |
| 2026-04-18 11:43 | 49.90510 | -125.36502 | 31729 ft | 367 kts | 300° |
| 2026-04-18 11:44 | 49.91866 | -125.39853 | 31832 ft | 367 kts | 300° |
| 2026-04-18 11:44 | 49.93225 | -125.43212 | 31956 ft | 367 kts | 300° |
| 2026-04-18 11:44 | 49.94580 | -125.46568 | 32074 ft | 367 kts | 300° |
| 2026-04-18 11:44 | 49.95936 | -125.49935 | 32128 ft | 368 kts | 300° |
| 2026-04-18 11:45 | 49.98671 | -125.56731 | 32167 ft | 373 kts | 300° |
| 2026-04-18 11:45 | 50.01436 | -125.63629 | 32173 ft | 379 kts | 300° |
| 2026-04-18 11:46 | 50.04243 | -125.70632 | 32171 ft | 383 kts | 300° |
| 2026-04-18 11:46 | 50.07078 | -125.77728 | 32182 ft | 388 kts | 300° |
| 2026-04-18 11:47 | 50.09940 | -125.84932 | 32179 ft | 393 kts | 300° |
| 2026-04-18 11:47 | 50.12832 | -125.92214 | 32171 ft | 398 kts | 300° |
| 2026-04-18 11:48 | 50.15751 | -125.99586 | 32182 ft | 402 kts | 300° |
| 2026-04-18 11:48 | 50.18693 | -126.07040 | 32165 ft | 406 kts | 300° |
| 2026-04-18 11:49 | 50.21639 | -126.14622 | 32162 ft | 410 kts | 299° |
| 2026-04-18 11:49 | 50.24582 | -126.22238 | 32166 ft | 413 kts | 299° |
| 2026-04-18 11:50 | 50.27588 | -126.29939 | 32135 ft | 416 kts | 300° |
| 2026-04-18 11:50 | 50.30613 | -126.37711 | 32148 ft | 420 kts | 300° |
| 2026-04-18 11:51 | 50.33660 | -126.45548 | 32148 ft | 423 kts | 299° |
| 2026-04-18 11:51 | 50.36718 | -126.53435 | 32150 ft | 425 kts | 299° |
| 2026-04-18 11:52 | 50.39790 | -126.61387 | 32126 ft | 427 kts | 299° |
| 2026-04-18 11:52 | 50.42906 | -126.69339 | 32138 ft | 429 kts | 300° |
| 2026-04-18 11:53 | 50.45506 | -126.75988 | 32145 ft | 431 kts | 300° |
| 2026-04-18 11:53 | 50.48606 | -126.84059 | 32142 ft | 433 kts | 299° |
| 2026-04-18 11:54 | 50.51712 | -126.92180 | 32123 ft | 434 kts | 299° |
| 2026-04-18 11:54 | 50.54818 | -127.00334 | 32126 ft | 435 kts | 299° |
| 2026-04-18 11:55 | 50.57925 | -127.08518 | 32115 ft | 435 kts | 299° |
| 2026-04-18 11:55 | 50.61021 | -127.16695 | 32126 ft | 435 kts | 299° |
| 2026-04-18 11:56 | 50.64092 | -127.24835 | 32125 ft | 435 kts | 299° |
| 2026-04-18 11:56 | 50.67851 | -127.32250 | 32121 ft | 438 kts | 317° |
| 2026-04-18 11:57 | 50.72757 | -127.38009 | 32125 ft | 440 kts | 321° |
| 2026-04-18 11:57 | 50.77756 | -127.43588 | 32115 ft | 440 kts | 323° |
| 2026-04-18 11:58 | 50.83100 | -127.48381 | 32118 ft | 444 kts | 331° |
| 2026-04-18 11:58 | 50.88738 | -127.52419 | 32116 ft | 445 kts | 332° |
| 2026-04-18 11:59 | 50.94280 | -127.56747 | 32115 ft | 444 kts | 329° |
| 2026-04-18 11:59 | 50.99780 | -127.61232 | 32118 ft | 445 kts | 329° |
| 2026-04-18 12:00 | 51.05310 | -127.65660 | 32114 ft | 445 kts | 330° |
| 2026-04-18 12:00 | 51.10824 | -127.70044 | 32115 ft | 446 kts | 330° |
| 2026-04-18 12:01 | 51.19174 | -127.76706 | 32123 ft | 448 kts | 330° |
| 2026-04-18 12:02 | 51.24753 | -127.81170 | 32119 ft | 449 kts | 330° |
| 2026-04-18 12:02 | 51.30356 | -127.85667 | 32117 ft | 451 kts | 330° |
| 2026-04-18 12:03 | 51.35971 | -127.90184 | 32118 ft | 452 kts | 330° |
| 2026-04-18 12:03 | 51.41600 | -127.94728 | 32123 ft | 454 kts | 330° |
| 2026-04-18 12:04 | 51.47250 | -127.99296 | 32120 ft | 456 kts | 331° |
| 2026-04-18 12:04 | 51.52912 | -128.03889 | 32127 ft | 457 kts | 330° |
| 2026-04-18 12:05 | 51.58599 | -128.08516 | 32129 ft | 459 kts | 330° |
| 2026-04-18 12:05 | 51.64300 | -128.13167 | 32121 ft | 460 kts | 330° |
| 2026-04-18 12:06 | 51.69987 | -128.17820 | 32114 ft | 461 kts | 330° |
| 2026-04-18 12:06 | 51.75714 | -128.22521 | 32124 ft | 462 kts | 330° |
| 2026-04-18 12:07 | 51.81457 | -128.27184 | 32129 ft | 460 kts | 330° |
| 2026-04-18 12:07 | 51.87169 | -128.31771 | 32127 ft | 454 kts | 328° |
| 2026-04-18 12:08 | 51.92763 | -128.36425 | 32112 ft | 450 kts | 328° |
| 2026-04-18 12:08 | 51.98324 | -128.41039 | 32110 ft | 447 kts | 328° |
| 2026-04-18 12:09 | 52.03845 | -128.45639 | 32112 ft | 445 kts | 328° |
| 2026-04-18 12:09 | 52.09342 | -128.50221 | 32110 ft | 443 kts | 328° |
| 2026-04-18 12:10 | 52.14788 | -128.54780 | 32109 ft | 442 kts | 328° |
| 2026-04-18 12:10 | 52.20257 | -128.59367 | 32113 ft | 442 kts | 328° |
| 2026-04-18 12:11 | 52.25721 | -128.63971 | 32121 ft | 441 kts | 328° |
| 2026-04-18 12:11 | 52.31186 | -128.68581 | 32118 ft | 441 kts | 328° |
| 2026-04-18 12:12 | 52.36640 | -128.73195 | 32115 ft | 441 kts | 328° |
| 2026-04-18 12:12 | 52.42100 | -128.77831 | 32116 ft | 442 kts | 328° |
| 2026-04-18 12:13 | 52.47564 | -128.82480 | 32117 ft | 442 kts | 328° |
| 2026-04-18 12:13 | 52.53000 | -128.87119 | 32112 ft | 443 kts | 328° |
| 2026-04-18 12:14 | 52.58476 | -128.91807 | 32113 ft | 444 kts | 328° |
| 2026-04-18 12:14 | 52.63962 | -128.96516 | 32117 ft | 444 kts | 328° |
| 2026-04-18 12:15 | 52.69449 | -129.01245 | 32114 ft | 445 kts | 328° |
| 2026-04-18 12:15 | 52.74943 | -129.05978 | 32121 ft | 446 kts | 327° |
| 2026-04-18 12:16 | 52.80406 | -129.10825 | 32142 ft | 446 kts | 327° |
| 2026-04-18 12:16 | 52.85902 | -129.15625 | 32130 ft | 447 kts | 328° |
| 2026-04-18 12:17 | 52.91406 | -129.20289 | 32116 ft | 447 kts | 328° |
| 2026-04-18 12:17 | 52.96913 | -129.25090 | 32112 ft | 447 kts | 327° |
| 2026-04-18 12:18 | 53.02421 | -129.29905 | 32117 ft | 447 kts | 327° |
| 2026-04-18 12:18 | 53.07935 | -129.34747 | 32116 ft | 448 kts | 327° |
| 2026-04-18 12:19 | 53.13444 | -129.39600 | 32120 ft | 448 kts | 327° |
| 2026-04-18 12:19 | 53.18958 | -129.44470 | 32112 ft | 448 kts | 327° |
| 2026-04-18 12:20 | 53.24464 | -129.49345 | 32116 ft | 448 kts | 327° |
| 2026-04-18 12:20 | 53.29970 | -129.54236 | 32080 ft | 448 kts | 327° |
| 2026-04-18 12:21 | 53.35430 | -129.59243 | 32115 ft | 447 kts | 326° |
| 2026-04-18 12:21 | 53.40878 | -129.64164 | 32092 ft | 450 kts | 329° |
| 2026-04-18 12:22 | 53.46510 | -129.68836 | 32063 ft | 447 kts | 327° |
| 2026-04-18 12:22 | 53.51901 | -129.73950 | 32081 ft | 444 kts | 325° |
| 2026-04-18 12:23 | 53.57283 | -129.78948 | 32056 ft | 445 kts | 328° |
| 2026-04-18 12:23 | 53.62777 | -129.83725 | 32139 ft | 444 kts | 327° |
| 2026-04-18 12:24 | 53.68223 | -129.88689 | 32091 ft | 445 kts | 327° |
| 2026-04-18 12:24 | 53.73696 | -129.93558 | 32111 ft | 443 kts | 325° |
| 2026-04-18 12:25 | 53.79087 | -129.98634 | 32058 ft | 443 kts | 327° |
| 2026-04-18 12:25 | 53.84510 | -130.03606 | 32079 ft | 443 kts | 326° |
| 2026-04-18 12:26 | 53.89929 | -130.08619 | 32082 ft | 444 kts | 327° |
| 2026-04-18 12:26 | 53.95332 | -130.13595 | 32083 ft | 445 kts | 327° |
| 2026-04-18 12:27 | 54.00778 | -130.18621 | 32080 ft | 445 kts | 326° |
| 2026-04-18 12:27 | 54.06222 | -130.23611 | 32100 ft | 444 kts | 325° |
| 2026-04-18 12:28 | 54.11662 | -130.28666 | 32085 ft | 446 kts | 327° |
| 2026-04-18 12:28 | 54.14403 | -130.31143 | 31881 ft | 450 kts | 327° |
| 2026-04-18 12:28 | 54.17195 | -130.33722 | 31360 ft | 462 kts | 327° |
| 2026-04-18 12:28 | 54.20016 | -130.36365 | 30830 ft | 462 kts | 327° |
| 2026-04-18 12:29 | 54.22814 | -130.38978 | 30296 ft | 450 kts | 327° |
| 2026-04-18 12:29 | 54.25509 | -130.41490 | 29772 ft | 434 kts | 327° |
| 2026-04-18 12:29 | 54.28096 | -130.43997 | 29258 ft | 419 kts | 323° |
| 2026-04-18 12:29 | 54.30444 | -130.46832 | 28764 ft | 406 kts | 318° |
| 2026-04-18 12:30 | 54.32563 | -130.49830 | 28290 ft | 395 kts | 315° |
| 2026-04-18 12:30 | 54.34595 | -130.52905 | 27820 ft | 386 kts | 314° |
| 2026-04-18 12:30 | 54.36583 | -130.55932 | 27359 ft | 378 kts | 315° |
| 2026-04-18 12:30 | 54.38561 | -130.58854 | 26907 ft | 372 kts | 316° |
| 2026-04-18 12:31 | 54.40530 | -130.61675 | 26465 ft | 366 kts | 316° |
| 2026-04-18 12:31 | 54.42472 | -130.64452 | 26030 ft | 360 kts | 316° |
| 2026-04-18 12:31 | 54.44383 | -130.67201 | 25603 ft | 355 kts | 316° |
| 2026-04-18 12:31 | 54.46262 | -130.69920 | 25183 ft | 352 kts | 316° |
| 2026-04-18 12:32 | 54.48123 | -130.72614 | 24774 ft | 348 kts | 316° |
| 2026-04-18 12:32 | 54.49969 | -130.75285 | 24361 ft | 345 kts | 316° |
| 2026-04-18 12:32 | 54.51803 | -130.77930 | 23957 ft | 342 kts | 316° |
| 2026-04-18 12:32 | 54.53630 | -130.80535 | 23558 ft | 340 kts | 316° |
| 2026-04-18 12:33 | 54.55446 | -130.83121 | 23164 ft | 337 kts | 316° |
| 2026-04-18 12:33 | 54.57244 | -130.85696 | 22769 ft | 335 kts | 316° |
| 2026-04-18 12:33 | 54.59024 | -130.88269 | 22379 ft | 333 kts | 316° |
| 2026-04-18 12:33 | 54.60793 | -130.90843 | 21998 ft | 331 kts | 316° |
| 2026-04-18 12:34 | 54.62550 | -130.93403 | 21621 ft | 330 kts | 316° |
| 2026-04-18 12:34 | 54.64275 | -130.95931 | 21241 ft | 328 kts | 316° |
| 2026-04-18 12:34 | 54.66017 | -130.98478 | 20863 ft | 329 kts | 316° |
| 2026-04-18 12:34 | 54.67769 | -131.01028 | 20486 ft | 329 kts | 316° |
| 2026-04-18 12:35 | 54.69522 | -131.03580 | 20105 ft | 328 kts | 316° |
| 2026-04-18 12:35 | 54.71257 | -131.06123 | 19727 ft | 326 kts | 316° |
| 2026-04-18 12:35 | 54.72982 | -131.08651 | 19354 ft | 324 kts | 316° |
| 2026-04-18 12:35 | 54.74698 | -131.11175 | 18968 ft | 322 kts | 316° |
| 2026-04-18 12:36 | 54.76400 | -131.13681 | 18599 ft | 320 kts | 316° |
| 2026-04-18 12:36 | 54.78099 | -131.16181 | 18225 ft | 319 kts | 316° |
| 2026-04-18 12:36 | 54.79788 | -131.18668 | 17852 ft | 318 kts | 316° |
| 2026-04-18 12:36 | 54.81467 | -131.21152 | 17479 ft | 317 kts | 316° |
| 2026-04-18 12:37 | 54.83141 | -131.23629 | 17112 ft | 316 kts | 316° |
| 2026-04-18 12:37 | 54.84811 | -131.26097 | 16744 ft | 315 kts | 316° |
| 2026-04-18 12:37 | 54.86474 | -131.28564 | 16377 ft | 314 kts | 316° |
| 2026-04-18 12:37 | 54.88131 | -131.31029 | 16011 ft | 313 kts | 316° |
| 2026-04-18 12:38 | 54.89787 | -131.33485 | 15648 ft | 313 kts | 316° |
| 2026-04-18 12:38 | 54.91441 | -131.35941 | 15286 ft | 312 kts | 316° |
| 2026-04-18 12:38 | 54.93066 | -131.38359 | 14927 ft | 311 kts | 316° |
| 2026-04-18 12:38 | 54.94707 | -131.40800 | 14574 ft | 310 kts | 316° |
| 2026-04-18 12:39 | 54.96339 | -131.43237 | 14206 ft | 309 kts | 316° |
| 2026-04-18 12:39 | 54.97969 | -131.45674 | 13843 ft | 308 kts | 316° |
| 2026-04-18 12:39 | 54.99591 | -131.48100 | 13482 ft | 307 kts | 316° |
| 2026-04-18 12:39 | 55.01209 | -131.50516 | 13122 ft | 305 kts | 316° |
| 2026-04-18 12:40 | 55.02814 | -131.52919 | 12761 ft | 304 kts | 316° |
| 2026-04-18 12:40 | 55.04416 | -131.55322 | 12410 ft | 303 kts | 316° |
| 2026-04-18 12:40 | 55.06017 | -131.57705 | 12056 ft | 302 kts | 317° |
| 2026-04-18 12:40 | 55.07077 | -131.59259 | 11821 ft | 301 kts | 317° |
| 2026-04-18 12:41 | 55.09250 | -131.62327 | 11346 ft | 300 kts | 319° |
| 2026-04-18 12:41 | 55.10337 | -131.63811 | 11116 ft | 299 kts | 320° |
| 2026-04-18 12:41 | 55.12510 | -131.66749 | 10648 ft | 297 kts | 320° |
| 2026-04-18 12:41 | 55.14135 | -131.68962 | 10299 ft | 295 kts | 320° |
| 2026-04-18 12:42 | 55.15752 | -131.71166 | 9954 ft | 293 kts | 320° |
| 2026-04-18 12:42 | 55.17355 | -131.73356 | 9603 ft | 292 kts | 320° |
| 2026-04-18 12:42 | 55.18952 | -131.75531 | 9275 ft | 290 kts | 320° |
| 2026-04-18 12:42 | 55.20027 | -131.76994 | 9046 ft | 289 kts | 320° |
| 2026-04-18 12:43 | 55.21598 | -131.79159 | 8706 ft | 287 kts | 320° |
| 2026-04-18 12:43 | 55.23154 | -131.81324 | 8359 ft | 284 kts | 320° |
| 2026-04-18 12:43 | 55.24708 | -131.83450 | 8022 ft | 282 kts | 321° |
| 2026-04-18 12:43 | 55.26257 | -131.85538 | 7689 ft | 280 kts | 321° |
| 2026-04-18 12:44 | 55.27779 | -131.87580 | 7369 ft | 277 kts | 321° |
| 2026-04-18 12:44 | 55.29297 | -131.89631 | 7040 ft | 274 kts | 321° |
| 2026-04-18 12:44 | 55.30789 | -131.91673 | 6715 ft | 271 kts | 321° |
| 2026-04-18 12:44 | 55.32262 | -131.93704 | 6401 ft | 267 kts | 321° |
| 2026-04-18 12:45 | 55.33711 | -131.95724 | 6085 ft | 264 kts | 321° |
| 2026-04-18 12:45 | 55.35138 | -131.97712 | 5775 ft | 260 kts | 321° |
| 2026-04-18 12:45 | 55.36552 | -131.99674 | 5468 ft | 257 kts | 321° |
| 2026-04-18 12:45 | 55.37951 | -132.01600 | 5146 ft | 255 kts | 323° |
| 2026-04-18 12:46 | 55.39558 | -132.02790 | 4782 ft | 253 kts | 358° |
| 2026-04-18 12:46 | 55.41210 | -132.02104 | 4480 ft | 242 kts | 34° |
| 2026-04-18 12:46 | 55.42503 | -132.00262 | 4206 ft | 238 kts | 48° |
| 2026-04-18 12:46 | 55.43592 | -131.98113 | 3931 ft | 233 kts | 52° |
| 2026-04-18 12:47 | 55.44609 | -131.95898 | 3644 ft | 231 kts | 53° |
| 2026-04-18 12:47 | 55.45593 | -131.93665 | 3305 ft | 230 kts | 59° |
| 2026-04-18 12:47 | 55.45952 | -131.90995 | 2955 ft | 227 kts | 100° |
| 2026-04-18 12:47 | 55.45346 | -131.88473 | 2674 ft | 222 kts | 122° |
| 2026-04-18 12:48 | 55.44422 | -131.86346 | 2411 ft | 215 kts | 133° |
| 2026-04-18 12:48 | 55.43376 | -131.84513 | 2136 ft | 209 kts | 137° |
| 2026-04-18 12:48 | 55.42328 | -131.82854 | 1953 ft | 193 kts | 139° |
| 2026-04-18 12:48 | 55.41423 | -131.81417 | 2099 ft | 164 kts | 136° |
| 2026-04-18 12:49 | 55.40575 | -131.79972 | 1551 ft | 179 kts | 136° |
| 2026-04-18 12:49 | 55.39685 | -131.78436 | 1113 ft | 182 kts | 135° |
| 2026-04-18 12:49 | 55.38803 | -131.76919 | 805 ft | 170 kts | 135° |
| 2026-04-18 12:49 | 55.38022 | -131.75521 | 639 ft | 153 kts | 135° |
| 2026-04-18 12:50 | 55.37299 | -131.74381 | 448 ft | 125 kts | 139° |
| 2026-04-18 12:50 | 55.36722 | -131.73381 | 183 ft | 113 kts | 130° |
| 2026-04-18 12:50 | 55.36158 | -131.72398 | 174 ft | 115 kts | 132° |
| 2026-04-18 12:50 | 55.35679 | -131.71566 | 97 ft | 77 kts | 144° |
| 2026-04-18 12:51 | 55.35432 | -131.71159 | 99 ft | 40 kts | 136° |
| 2026-04-18 12:51 | 55.35235 | -131.70820 | 99 ft | 40 kts | 135° |
| 2026-04-18 12:51 | 55.35078 | -131.70541 | 96 ft | 27 kts | 134° |
| 2026-04-18 12:51 | 55.34947 | -131.70328 | 98 ft | 26 kts | 137° |
| 2026-04-18 12:52 | 55.34851 | -131.70122 | 100 ft | 17 kts | 95° |
| 2026-04-18 12:52 | 55.34913 | -131.70027 | 99 ft | 13 kts | 359° |
| 2026-04-18 12:52 | 55.34985 | -131.70116 | 99 ft | 13 kts | 316° |
| 2026-04-18 12:52 | 55.35058 | -131.70236 | 98 ft | 16 kts | 317° |
| 2026-04-18 12:53 | 55.35152 | -131.70384 | 93 ft | 22 kts | 317° |
| 2026-04-18 12:53 | 55.35287 | -131.70602 | 60 ft | 28 kts | 317° |
| 2026-04-18 12:53 | 55.35392 | -131.70781 | 46 ft | 25 kts | 315° |
| 2026-04-18 12:53 | 55.35523 | -131.71008 | 40 ft | 18 kts | 315° |
| 2026-04-18 12:54 | 55.35601 | -131.71059 | 40 ft | 9 kts | 48° |
| 2026-04-18 12:54 | 55.35631 | -131.70992 | 40 ft | 0 kts | 48° |